Map

Track Data

SID SEASON NUMBER BASIN SUBBASIN NAME ISO_TIME NATURE LAT LON WMO_WIND WMO_PRES WMO_AGENCY TRACK_TYPE DIST2LAND LANDFALL IFLAG USA_AGENCY USA_ATCF_ID USA_LAT USA_LON USA_RECORD USA_STATUS USA_WIND USA_PRES USA_SSHS USA_R34_NE USA_R34_SE USA_R34_SW USA_R34_NW USA_R50_NE USA_R50_SE USA_R50_SW USA_R50_NW USA_R64_NE USA_R64_SE USA_R64_SW USA_R64_NW USA_POCI USA_ROCI USA_RMW USA_EYE TOKYO_LAT TOKYO_LON TOKYO_GRADE TOKYO_WIND TOKYO_PRES TOKYO_R50_DIR TOKYO_R50_LONG TOKYO_R50_SHORT TOKYO_R30_DIR TOKYO_R30_LONG TOKYO_R30_SHORT TOKYO_LAND CMA_LAT CMA_LON CMA_CAT CMA_WIND CMA_PRES HKO_LAT HKO_LON HKO_CAT HKO_WIND HKO_PRES NEWDELHI_LAT NEWDELHI_LON NEWDELHI_GRADE NEWDELHI_WIND NEWDELHI_PRES NEWDELHI_CI NEWDELHI_DP NEWDELHI_POCI REUNION_LAT REUNION_LON REUNION_TYPE REUNION_WIND REUNION_PRES REUNION_TNUM REUNION_CI REUNION_RMW REUNION_R34_NE REUNION_R34_SE REUNION_R34_SW REUNION_R34_NW REUNION_R50_NE REUNION_R50_SE REUNION_R50_SW REUNION_R50_NW REUNION_R64_NE REUNION_R64_SE REUNION_R64_SW REUNION_R64_NW BOM_LAT BOM_LON BOM_TYPE BOM_WIND BOM_PRES BOM_TNUM BOM_CI BOM_RMW BOM_R34_NE BOM_R34_SE BOM_R34_SW BOM_R34_NW BOM_R50_NE BOM_R50_SE BOM_R50_SW BOM_R50_NW BOM_R64_NE BOM_R64_SE BOM_R64_SW BOM_R64_NW BOM_ROCI BOM_POCI BOM_EYE BOM_POS_METHOD BOM_PRES_METHOD NADI_LAT NADI_LON NADI_CAT NADI_WIND NADI_PRES WELLINGTON_LAT WELLINGTON_LON WELLINGTON_WIND WELLINGTON_PRES DS824_LAT DS824_LON DS824_STAGE DS824_WIND DS824_PRES TD9636_LAT TD9636_LON TD9636_STAGE TD9636_WIND TD9636_PRES TD9635_LAT TD9635_LON TD9635_WIND TD9635_PRES TD9635_ROCI NEUMANN_LAT NEUMANN_LON NEUMANN_CLASS NEUMANN_WIND NEUMANN_PRES MLC_LAT MLC_LON MLC_CLASS MLC_WIND MLC_PRES USA_GUST BOM_GUST BOM_GUST_PER REUNION_GUST REUNION_GUST_PER USA_SEAHGT USA_SEARAD_NE USA_SEARAD_SE USA_SEARAD_SW USA_SEARAD_NW STORM_SPEED STORM_DIR
1976297N19304 1976 128 NA NA HOLLY 1976-10-22 18:00:00 TS 19.1000 -55.8000 25 1006 hurdat_atl main 1034 1004 O_____________ hurdat_atl AL211976 19.1000 -55.8000 TD 25 1006 -1 9 315
1976297N19304 1976 128 NA NA HOLLY 1976-10-22 21:00:00 TS 19.4102 -56.1297 main 1005 977 P_____________ AL211976 19.4102 -56.1297 TD 25 -1 9 321
1976297N19304 1976 128 NA NA HOLLY 1976-10-23 00:00:00 TS 19.8000 -56.4000 25 hurdat_atl main 979 967 O_____________ hurdat_atl AL211976 19.8000 -56.4000 TD 25 -1 10 335
1976297N19304 1976 128 NA NA HOLLY 1976-10-23 03:00:00 TS 20.3199 -56.5727 main 967 967 P_____________ AL211976 20.3199 -56.5727 TD 25 -1 11 346
1976297N19304 1976 128 NA NA HOLLY 1976-10-23 06:00:00 TS 20.9000 -56.7000 25 hurdat_atl main 972 972 O_____________ hurdat_atl AL211976 20.9000 -56.7000 TD 25 -1 12 350
1976297N19304 1976 128 NA NA HOLLY 1976-10-23 09:00:00 TS 21.4947 -56.7978 main 982 980 P_____________ AL211976 21.4947 -56.7978 TD 25 -1 11 346
1976297N19304 1976 128 NA NA HOLLY 1976-10-23 12:00:00 TS 22.0000 -57.0000 25 hurdat_atl main 983 950 O_____________ hurdat_atl AL211976 22.0000 -57.0000 TD 25 -1 10 320
1976297N19304 1976 128 NA NA HOLLY 1976-10-23 15:00:00 TS 22.2731 -57.5000 main 950 914 P_____________ AL211976 22.2731 -57.5000 TD 30 -1 11 298
1976297N19304 1976 128 NA NA HOLLY 1976-10-23 18:00:00 TS 22.5000 -58.0000 35 1002 hurdat_atl main 914 907 O_____________ hurdat_atl AL211976 22.5000 -58.0000 TS 35 1002 0 9 311
1976297N19304 1976 128 NA NA HOLLY 1976-10-23 21:00:00 TS 22.8698 -58.2326 main 919 910 P_____________ AL211976 22.8698 -58.2326 TS 35 1000 0 9 341
1976297N19304 1976 128 NA NA HOLLY 1976-10-24 00:00:00 TS 23.3000 -58.3000 35 hurdat_atl main 935 935 I_____________ hurdat_atl AL211976 23.3000 -58.3000 TS 35 998 0 9 358
1976297N19304 1976 128 NA NA HOLLY 1976-10-24 03:00:00 TS 23.7575 -58.2803 main 968 968 P_____________ AL211976 23.7575 -58.2803 TS 40 996 0 9 5
1976297N19304 1976 128 NA NA HOLLY 1976-10-24 06:00:00 TS 24.2000 -58.2000 45 995 hurdat_atl main 1003 1003 O_____________ hurdat_atl AL211976 24.2000 -58.2000 TS 45 995 0 8 7
1976297N19304 1976 128 NA NA HOLLY 1976-10-24 09:00:00 TS 24.5500 -58.1648 main 1024 1024 P_____________ AL211976 24.5500 -58.1648 TS 55 992 0 7 7
1976297N19304 1976 128 NA NA HOLLY 1976-10-24 12:00:00 TS 24.9000 -58.1000 65 990 hurdat_atl main 1061 1061 O_____________ hurdat_atl AL211976 24.9000 -58.1000 HU 65 990 1 8 14
1976297N19304 1976 128 NA NA HOLLY 1976-10-24 15:00:00 TS 25.2975 -57.9649 main 1099 1099 P_____________ AL211976 25.2975 -57.9649 HU 65 991 1 9 17
1976297N19304 1976 128 NA NA HOLLY 1976-10-24 18:00:00 TS 25.8000 -57.8000 65 hurdat_atl main 1152 1152 I_____________ hurdat_atl AL211976 25.8000 -57.8000 HU 65 992 1 12 12
1976297N19304 1976 128 NA NA HOLLY 1976-10-24 21:00:00 TS 26.4548 -57.6867 main 1215 1215 P_____________ AL211976 26.4548 -57.6867 HU 65 993 1 14 11
1976297N19304 1976 128 NA NA HOLLY 1976-10-25 00:00:00 TS 27.2000 -57.5000 65 995 hurdat_atl main 1286 1286 O_____________ hurdat_atl AL211976 27.2000 -57.5000 HU 65 995 1 16 18
1976297N19304 1976 128 NA NA HOLLY 1976-10-25 03:00:00 TS 27.9275 -57.1522 main 1364 1364 P_____________ AL211976 27.9275 -57.1522 HU 65 996 1 17 25
1976297N19304 1976 128 NA NA HOLLY 1976-10-25 06:00:00 TS 28.7000 -56.7000 65 hurdat_atl main 1464 1464 I_____________ hurdat_atl AL211976 28.7000 -56.7000 HU 65 997 1 18 25
1976297N19304 1976 128 NA NA HOLLY 1976-10-25 09:00:00 TS 29.5642 -56.2665 main 1566 1566 P_____________ AL211976 29.5642 -56.2665 HU 57 998 0 19 27
1976297N19304 1976 128 NA NA HOLLY 1976-10-25 12:00:00 TS 30.4000 -55.7000 50 1000 hurdat_atl main 1671 1650 O_____________ hurdat_atl AL211976 30.4000 -55.7000 TS 50 1000 0 20 38
1976297N19304 1976 128 NA NA HOLLY 1976-10-25 15:00:00 TS 31.1412 -54.8517 main 1655 1619 P_____________ AL211976 31.1412 -54.8517 TS 50 0 20 48
1976297N19304 1976 128 NA NA HOLLY 1976-10-25 18:00:00 TS 31.7000 -54.0000 50 hurdat_atl main 1622 1605 O_____________ hurdat_atl AL211976 31.7000 -54.0000 TS 50 0 15 53
1976297N19304 1976 128 NA NA HOLLY 1976-10-25 21:00:00 TS 32.0391 -53.4384 main 1612 1598 P_____________ AL211976 32.0391 -53.4384 TS 50 0 10 59
1976297N19304 1976 128 NA NA HOLLY 1976-10-26 00:00:00 TS 32.2000 -53.0000 50 hurdat_atl main 1602 1592 O_____________ hurdat_atl AL211976 32.2000 -53.0000 TS 50 0 8 73
1976297N19304 1976 128 NA NA HOLLY 1976-10-26 03:00:00 TS 32.2723 -52.5344 main 1592 1592 P_____________ AL211976 32.2723 -52.5344 TS 50 0 8 83
1976297N19304 1976 128 NA NA HOLLY 1976-10-26 06:00:00 TS 32.3000 -52.1000 50 hurdat_atl main 1594 1584 O_____________ hurdat_atl AL211976 32.3000 -52.1000 TS 50 0 7 80
1976297N19304 1976 128 NA NA HOLLY 1976-10-26 09:00:00 TS 32.3996 -51.7076 main 1585 1575 P_____________ AL211976 32.3996 -51.7076 TS 45 0 7 74
1976297N19304 1976 128 NA NA HOLLY 1976-10-26 12:00:00 TS 32.5000 -51.3000 40 hurdat_atl main 1577 1577 O_____________ hurdat_atl AL211976 32.5000 -51.3000 TS 40 0 8 81
1976297N19304 1976 128 NA NA HOLLY 1976-10-26 15:00:00 TS 32.5205 -50.7547 main 1582 1576 P_____________ AL211976 32.5205 -50.7547 TS 40 0 8 83
1976297N19304 1976 128 NA NA HOLLY 1976-10-26 18:00:00 TS 32.6000 -50.3000 40 hurdat_atl main 1577 1556 O_____________ hurdat_atl AL211976 32.6000 -50.3000 TS 40 0 6 57
1976297N19304 1976 128 NA NA HOLLY 1976-10-26 21:00:00 TS 32.8547 -50.1324 main 1547 1514 P_____________ AL211976 32.8547 -50.1324 TS 40 0 6 16
1976297N19304 1976 128 NA NA HOLLY 1976-10-27 00:00:00 TS 33.2000 -50.1000 40 hurdat_atl main 1514 1481 O_____________ hurdat_atl AL211976 33.2000 -50.1000 TS 40 0 7 4
1976297N19304 1976 128 NA NA HOLLY 1976-10-27 03:00:00 TS 33.5424 -50.0720 main 1481 1438 P_____________ AL211976 33.5424 -50.0720 TS 40 0 7 6
1976297N19304 1976 128 NA NA HOLLY 1976-10-27 06:00:00 TS 33.9000 -50.0000 40 hurdat_atl main 1438 1407 O_____________ hurdat_atl AL211976 33.9000 -50.0000 TS 40 0 7 15
1976297N19304 1976 128 NA NA HOLLY 1976-10-27 09:00:00 TS 34.2268 -49.8537 main 1407 1368 P_____________ AL211976 34.2268 -49.8537 TS 40 0 8 31
1976297N19304 1976 128 NA NA HOLLY 1976-10-27 12:00:00 TS 34.6000 -49.5000 40 hurdat_atl main 1370 1337 O_____________ hurdat_atl AL211976 34.6000 -49.5000 TS 40 0 11 45
1976297N19304 1976 128 NA NA HOLLY 1976-10-27 15:00:00 TS 35.0397 -48.8684 main 1339 1295 P_____________ AL211976 35.0397 -48.8684 TS 40 0 16 51
1976297N19304 1976 128 NA NA HOLLY 1976-10-27 18:00:00 TS 35.6000 -48.0000 40 hurdat_atl main 1297 1251 O_____________ hurdat_atl AL211976 35.6000 -48.0000 TS 40 0 20 50
1976297N19304 1976 128 NA NA HOLLY 1976-10-27 21:00:00 TS 36.2971 -47.0164 main 1255 1211 P_____________ AL211976 36.2971 -47.0164 TS 40 0 23 48
1976297N19304 1976 128 NA NA HOLLY 1976-10-28 00:00:00 TS 37.1000 -45.9000 40 hurdat_atl main 1215 1191 O_____________ hurdat_atl AL211976 37.1000 -45.9000 TS 40 0 23 49
1976297N19304 1976 128 NA NA HOLLY 1976-10-28 03:00:00 TS 37.8105 -44.8271 main 1195 1169 P_____________ AL211976 37.8105 -44.8271 TS 37 0 25 48
1976297N19304 1976 128 NA NA HOLLY 1976-10-28 06:00:00 TS 38.8000 -43.5000 35 hurdat_atl main 1171 1151 O_____________ hurdat_atl AL211976 38.8000 -43.5000 TS 35 0 36 44
1976297N19304 1976 128 NA NA HOLLY 1976-10-28 09:00:00 TS 40.3756 -41.6643 main 1150 1149 P_____________ AL211976 40.3756 -41.6643 TS 35 0 45 43
1976297N19304 1976 128 NA NA HOLLY 1976-10-28 12:00:00 TS 42.1000 -39.5000 35 hurdat_atl main 1186 1186 O_____________ hurdat_atl AL211976 42.1000 -39.5000 TS 35 0 45 45
1976297N19304 1976 128 NA NA HOLLY 1976-10-28 15:00:00 TS 43.5651 -37.3199 main 1260 1260 P_____________ AL211976 43.5651 -37.3199 TS 35 0 42 50
1976297N19304 1976 128 NA NA HOLLY 1976-10-28 18:00:00 ET 44.8000 -35.0000 35 hurdat_atl main 1379 1379 O_____________ hurdat_atl AL211976 44.8000 -35.0000 EX 35 -4 40 57
1976297N19304 1976 128 NA NA HOLLY 1976-10-28 21:00:00 ET 45.7466 -32.5479 main 1537 1536 P_____________ AL211976 45.7466 -32.5479 EX 35 -4 39 64
1976297N19304 1976 128 NA NA HOLLY 1976-10-29 00:00:00 ET 46.5000 -30.0000 35 1000 hurdat_atl main 1529 O_____________ hurdat_atl AL211976 46.5000 -30.0000 EX 35 1000 -4 38 67

About IBTrACS Database

This database is a web-friendly format of International Best Track Archive for Climate Stewardship (IBTrACS), a global best track data archive curated by NOAA dating back to 1842.

Updated: 2021-12-03